Elizabeth Mc Allister — WDB7652 — position and weather

sailwx.info

Track history (hours):
 
Tides and Currents Weather Stations Pressure Air Temp Water Temp Dewpoint Dewpoint Depression Visibility Wind Speed Wind Dir Waves Ship Positions

Elizabeth Mc Allister

Owner: MC ALLISTER TOWING & TRANSPORTATION INC, NEW YORK, NY. More information available from US FCC via Universal Licensing System and Coast Guard Vessel Documentation Center.

Last reported at 2017-May-24 18:18 UTC. Time now 2017-May-26 16:50 UTC.
Position N 40°38' W 074°10'.

Length 31 m.

Type: Tug. MMSI: 362751376.

Date/timePositionNaut miles runAvg speedWind from/ knotsBaromVisibWave heightAir tempDewpointWater temp
2017-May-24 18:18N 40°38' W 074°10'0 0.7
2017-May-24 18:00N 40°38' W 074°10'4 8.8
2017-May-24 17:30N 40°40' W 074°04'611.4
2017-May-24 17:00N 40°45' W 074°01'2 3.2
2017-May-24 16:30N 40°46' W 073°60'0 0.1
2017-May-24 16:00N 40°46' W 073°60'1 1.6
2017-May-24 15:30N 40°47' W 073°60'1 1.7
2017-May-24 15:00N 40°46' W 074°00'0 0.3
2017-May-24 14:00N 40°46' W 074°00'4 8.7
2017-May-24 13:30N 40°42' W 074°02'4 7.2
2017-May-24 13:00N 40°38' W 074°03'0 0.2
2017-May-24 12:30N 40°38' W 074°03'5 9.5
2017-May-24 12:00N 40°38' W 074°09'0 0.6
2017-May-24 11:30N 40°38' W 074°10'0 0.0
2017-May-24 11:00N 40°38' W 074°10'0 0.0
2017-May-24 10:30N 40°38' W 074°10'0 0.0
2017-May-24 09:59N 40°38' W 074°10'0 0.0
2017-May-24 09:30N 40°38' W 074°10'0 0.0
2017-May-24 09:00N 40°38' W 074°10'0 0.0
2017-May-24 08:30N 40°38' W 074°10'0 0.0
2017-May-24 08:00N 40°38' W 074°10'0 0.0
2017-May-24 07:30N 40°38' W 074°10'0 0.0
2017-May-24 07:00N 40°38' W 074°10'0 0.0
2017-May-24 06:30N 40°38' W 074°10'0 0.0
2017-May-24 06:00N 40°38' W 074°10'0 0.0
2017-May-24 05:30N 40°38' W 074°10'0 0.0
2017-May-24 05:00N 40°38' W 074°10'0 0.0
2017-May-24 04:30N 40°38' W 074°10'0 0.0
2017-May-24 04:00N 40°38' W 074°10'0 0.0
2017-May-24 03:29N 40°38' W 074°10'0 0.0
2017-May-24 03:00N 40°38' W 074°10'0 0.0
2017-May-24 02:30N 40°38' W 074°10'0 0.0
2017-May-24 02:00N 40°38' W 074°10'0 0.0
2017-May-24 01:30N 40°38' W 074°10'0 0.0
2017-May-24 01:00N 40°38' W 074°10'0 0.0
2017-May-24 00:30N 40°38' W 074°10'0 0.0
2017-May-24 00:00N 40°38' W 074°10'0 0.0
2017-May-23 23:30N 40°38' W 074°10'0 0.0
2017-May-23 23:00N 40°38' W 074°10'0 0.0
2017-May-23 22:30N 40°38' W 074°10'0 0.0
2017-May-23 22:00N 40°38' W 074°10'0 0.0
2017-May-23 21:30N 40°38' W 074°10'0 0.0
2017-May-23 21:00N 40°38' W 074°10'0 0.0
2017-May-23 20:30N 40°38' W 074°10'0 0.0
2017-May-23 20:00N 40°38' W 074°10'0 0.0
2017-May-23 19:30N 40°38' W 074°10'0 0.0
2017-May-23 19:00N 40°38' W 074°10'0 0.0
2017-May-23 18:30N 40°38' W 074°10'0 0.0
2017-May-23 18:00N 40°38' W 074°10'0 0.0
2017-May-23 17:30N 40°38' W 074°10'0 0.0
2017-May-23 17:00N 40°38' W 074°10'0 0.0
2017-May-23 16:30N 40°38' W 074°10'0 0.0
2017-May-23 16:00N 40°38' W 074°10'0 0.0
2017-May-23 15:30N 40°38' W 074°10'0 0.0
2017-May-23 15:00N 40°38' W 074°10'0 0.0
2017-May-23 14:30N 40°38' W 074°10'0 0.0
2017-May-23 13:30N 40°38' W 074°10'0 0.0
2017-May-23 13:00N 40°38' W 074°10'0 0.0
2017-May-23 12:30N 40°38' W 074°10'0 0.0
2017-May-23 12:00N 40°38' W 074°10'0 0.0
2017-May-23 11:30N 40°38' W 074°10'0 0.0
2017-May-23 11:00N 40°38' W 074°10'0 0.0
2017-May-23 10:30N 40°38' W 074°10'0 0.0
2017-May-23 10:00N 40°38' W 074°10'0 0.0
2017-May-23 09:30N 40°38' W 074°10'0 0.0
2017-May-23 09:00N 40°38' W 074°10'0 0.0
2017-May-23 08:30N 40°38' W 074°10'0 0.0
2017-May-23 08:00N 40°38' W 074°10'0 0.0
2017-May-23 07:30N 40°38' W 074°10'0 0.0
2017-May-23 07:00N 40°38' W 074°10'0 0.0
2017-May-23 06:30N 40°38' W 074°10'0 0.0
2017-May-23 06:00N 40°38' W 074°10'0 0.0
2017-May-23 05:30N 40°38' W 074°10'0 0.0
2017-May-23 05:00N 40°38' W 074°10'0 0.0
2017-May-23 04:30N 40°38' W 074°10'0 0.0
2017-May-23 04:00N 40°38' W 074°10'0 0.0
2017-May-23 03:30N 40°38' W 074°10'0 0.0
2017-May-23 03:00N 40°38' W 074°10'0 0.0
2017-May-23 02:30N 40°38' W 074°10'0 0.0
2017-May-23 02:00N 40°38' W 074°10'0 0.0
2017-May-23 01:30N 40°38' W 074°10'0 0.0
2017-May-23 01:00N 40°38' W 074°10'0 0.0
2017-May-23 00:00N 40°38' W 074°10'0 0.0
2017-May-22 23:30N 40°38' W 074°10'0 0.0
2017-May-22 23:00N 40°38' W 074°10'0 0.0
2017-May-22 22:30N 40°38' W 074°10'0 0.0
2017-May-22 22:00N 40°38' W 074°10'2 4.4
2017-May-22 21:30N 40°40' W 074°08'0 0.9
2017-May-22 21:00N 40°41' W 074°09'1 2.2
2017-May-22 20:30N 40°40' W 074°09'2 3.5
2017-May-22 20:00N 40°39' W 074°07'2 4.4
2017-May-22 19:30N 40°40' W 074°04'0 0.1
2017-May-22 19:00N 40°40' W 074°04'0 0.0
2017-May-22 18:30N 40°40' W 074°04'0 0.0
2017-May-22 18:00N 40°40' W 074°04'0 0.0
2017-May-22 17:30N 40°40' W 074°04'0 0.0
2017-May-22 17:00N 40°40' W 074°04'0 0.0
2017-May-22 16:30N 40°40' W 074°04'0 0.0
2017-May-22 16:00N 40°40' W 074°04'0 0.0
2017-May-22 15:30N 40°40' W 074°04'0 0.0
2017-May-22 15:00N 40°40' W 074°04'5 5.3
2017-May-22 14:00N 40°35' W 074°02'4 7.0
2017-May-22 13:29N 40°31' W 074°03'3 6.8
2017-May-22 13:00N 40°28' W 074°03'1 0.2
2017-May-22 08:47N 40°27' W 074°03'0 0.0
2017-May-22 08:23N 40°27' W 074°03'0 0.0
2017-May-22 07:57N 40°27' W 074°03'0 0.0
2017-May-22 07:27N 40°27' W 074°03'0 0.0
2017-May-22 06:56N 40°27' W 074°03'0 0.0
2017-May-22 06:24N 40°27' W 074°03'0 0.0
2017-May-22 05:57N 40°27' W 074°03'0 0.0
2017-May-22 05:30N 40°27' W 074°03'0 0.0
2017-May-22 05:00N 40°27' W 074°03'0 0.0
2017-May-22 04:30N 40°27' W 074°03'0 0.0
2017-May-21 20:18N 40°27' W 074°03'0 0.0
2017-May-21 19:26N 40°27' W 074°03'0 0.0
2017-May-21 18:58N 40°27' W 074°03'0 0.0
2017-May-21 18:28N 40°27' W 074°03'0 0.0
2017-May-21 18:00N 40°27' W 074°03'0 0.0
2017-May-21 17:30N 40°27' W 074°03'0 0.0
2017-May-21 17:00N 40°27' W 074°03'0 0.0
2017-May-21 16:26N 40°27' W 074°03'0 0.0
2017-May-21 15:59N 40°27' W 074°03'0 0.0
2017-May-21 15:29N 40°27' W 074°03'0 0.0
2017-May-21 14:59N 40°27' W 074°03'0 0.0
2017-May-21 13:59N 40°27' W 074°03'0 0.0
2017-May-21 12:00N 40°27' W 074°03'0 0.0
2017-May-21 11:29N 40°27' W 074°03'0 0.0
2017-May-21 11:00N 40°27' W 074°03'0 0.0
2017-May-21 10:30N 40°27' W 074°03'0 0.0
2017-May-21 10:00N 40°27' W 074°03'0 0.0
2017-May-21 09:30N 40°27' W 074°03'0 0.0
2017-May-21 09:00N 40°27' W 074°03'0 0.0
2017-May-21 08:29N 40°27' W 074°03'0 0.0
2017-May-21 07:59N 40°27' W 074°03'0 0.0
2017-May-21 07:18N 40°27' W 074°03'0 0.0
2017-May-21 07:00N 40°27' W 074°03'0 0.0
2017-May-21 06:30N 40°27' W 074°03'0 0.0
2017-May-21 05:58N 40°27' W 074°03'0 0.0
2017-May-21 05:28N 40°27' W 074°03'0 0.0
2017-May-21 04:57N 40°27' W 074°03'0 0.0
2017-May-21 04:18N 40°27' W 074°03'0 0.0
2017-May-20 18:42N 40°27' W 074°03'0 0.0
2017-May-20 18:18N 40°27' W 074°03'0 0.0
2017-May-20 17:51N 40°27' W 074°03'0 0.0
2017-May-20 17:28N 40°27' W 074°03'0 0.0
2017-May-20 16:58N 40°27' W 074°03'0 0.0
2017-May-20 16:23N 40°27' W 074°03'0 0.0
2017-May-20 15:59N 40°27' W 074°03'0 0.0
2017-May-20 15:29N 40°27' W 074°03'0 0.0
2017-May-20 15:00N 40°27' W 074°03'0 0.0
2017-May-20 14:30N 40°27' W 074°03'0 0.0
2017-May-20 13:29N 40°27' W 074°03'0 0.0
2017-May-20 13:00N 40°27' W 074°03'0 0.0
2017-May-20 12:28N 40°27' W 074°03'0 0.0
2017-May-20 12:00N 40°27' W 074°03'0 0.0
2017-May-20 11:30N 40°27' W 074°03'0 0.0
2017-May-20 10:59N 40°27' W 074°03'0 0.0
2017-May-20 10:30N 40°27' W 074°03'0 0.0
2017-May-20 09:59N 40°27' W 074°03'0 0.0
2017-May-20 09:26N 40°27' W 074°03'0 0.0
2017-May-20 08:58N 40°27' W 074°03'0 0.0
2017-May-20 08:30N 40°27' W 074°03'0 0.0
2017-May-20 07:59N 40°27' W 074°03'0 0.0
2017-May-20 07:30N 40°27' W 074°03'0 0.0
2017-May-20 07:00N 40°27' W 074°03'0 0.0
2017-May-20 06:28N 40°27' W 074°03'0 0.0
2017-May-20 06:00N 40°27' W 074°03'0 0.0
2017-May-20 05:29N 40°27' W 074°03'0 0.0
2017-May-20 05:00N 40°27' W 074°03'0 0.0
2017-May-20 04:30N 40°27' W 074°03'0 0.0
2017-May-20 03:14N 40°27' W 074°03'0 0.0
2017-May-20 02:59N 40°27' W 074°03'0 0.0
2017-May-20 02:28N 40°27' W 074°03'0 0.0
2017-May-20 02:00N 40°27' W 074°03'0 0.0
2017-May-20 01:30N 40°27' W 074°03'0 0.0
2017-May-20 00:43N 40°27' W 074°03'0 0.0
2017-May-19 22:56N 40°27' W 074°03'0 0.0
2017-May-19 18:24N 40°27' W 074°03'0 0.0
2017-May-19 17:56N 40°27' W 074°03'0 0.0
2017-May-19 17:15N 40°27' W 074°03'0 0.0
2017-May-19 16:53N 40°27' W 074°03'0 0.0
2017-May-19 16:27N 40°27' W 074°03'0 0.0
2017-May-19 15:51N 40°27' W 074°03'0 0.0
2017-May-19 15:25N 40°27' W 074°03'0 0.0
2017-May-19 13:58N 40°27' W 074°03'0 0.0
2017-May-19 13:18N 40°27' W 074°03'0 0.0
2017-May-19 12:17N 40°27' W 074°03'0 0.0
2017-May-19 11:55N 40°27' W 074°03'0 0.0
2017-May-19 10:21N 40°27' W 074°03'0 0.0
2017-May-19 09:56N 40°27' W 074°03'0 0.0
2017-May-19 09:28N 40°27' W 074°03'0 0.0
2017-May-19 09:00N 40°27' W 074°03'0 0.0
2017-May-19 08:28N 40°27' W 074°03'0 0.0
2017-May-19 08:00N 40°27' W 074°03'0 0.0
2017-May-19 07:29N 40°27' W 074°03'0 0.0
2017-May-19 06:59N 40°27' W 074°03'0 0.0
2017-May-19 03:19N 40°27' W 074°03'0 0.0
2017-May-19 02:59N 40°27' W 074°03'0 0.0
2017-May-19 02:25N 40°27' W 074°03'0 0.0
2017-May-19 01:23N 40°27' W 074°03'0 0.0
2017-May-19 00:57N 40°27' W 074°03'0 0.0
2017-May-18 21:06N 40°27' W 074°03'0 0.0
2017-May-18 20:50N 40°27' W 074°03'0 0.0
2017-May-18 19:52N 40°27' W 074°03'0 0.0
2017-May-18 17:48N 40°27' W 074°03'0 0.0
2017-May-18 17:21N 40°27' W 074°03'0 0.0
2017-May-18 16:49N 40°27' W 074°03'0 0.0
2017-May-18 16:30N 40°27' W 074°03'0 0.0
2017-May-18 16:00N 40°27' W 074°03'0 0.0
2017-May-18 15:30N 40°27' W 074°03'0 0.0
2017-May-18 14:41N 40°27' W 074°03'0 0.0
2017-May-18 13:28N 40°27' W 074°03'0 0.0
2017-May-18 12:14N 40°27' W 074°03'0 0.0
2017-May-18 11:09N 40°27' W 074°03'0 0.0
2017-May-18 10:59N 40°27' W 074°03'0 0.0
2017-May-18 10:28N 40°27' W 074°03'0 0.0
2017-May-18 09:57N 40°27' W 074°03'0 0.0
2017-May-18 09:29N 40°27' W 074°03'0 0.0
2017-May-18 08:57N 40°27' W 074°03'0 0.0
2017-May-18 08:27N 40°27' W 074°03'0 0.0
2017-May-18 07:58N 40°27' W 074°03'0 0.0
2017-May-18 07:28N 40°27' W 074°03'0 0.0
2017-May-18 06:37N 40°27' W 074°03'0 0.0
2017-May-18 06:23N 40°27' W 074°03'0 0.0
2017-May-18 05:58N 40°27' W 074°03'0 0.0
2017-May-18 05:29N 40°27' W 074°03'0 0.0
2017-May-18 04:58N 40°27' W 074°03'0 0.0
2017-May-18 01:11N 40°27' W 074°03'0 0.0
2017-May-18 00:45N 40°27' W 074°03'0 0.0
2017-May-18 00:26N 40°27' W 074°03'0 0.0
2017-May-17 23:59N 40°27' W 074°03'0 0.0
2017-May-17 23:29N 40°27' W 074°03'0 0.0
2017-May-17 20:17N 40°27' W 074°03'0 0.0
2017-May-17 18:03N 40°27' W 074°03'0 0.0
2017-May-17 17:49N 40°27' W 074°03'0 0.0
2017-May-17 17:07N 40°27' W 074°03'0 0.0
2017-May-17 16:56N 40°27' W 074°03'0 0.0
2017-May-17 15:54N 40°27' W 074°03'0 0.0
2017-May-17 15:30N 40°27' W 074°03'0 0.0
2017-May-17 14:59N 40°27' W 074°03'0 0.0
2017-May-17 14:00N 40°27' W 074°03'0 0.0
2017-May-17 13:29N 40°27' W 074°03'0 0.0
2017-May-17 12:59N 40°27' W 074°03'0 0.0
2017-May-17 11:50N 40°27' W 074°03'0 0.0
2017-May-17 11:27N 40°27' W 074°03'0 0.0
2017-May-17 10:39N 40°27' W 074°03'0 0.0
2017-May-17 10:28N 40°27' W 074°03'0 0.0
2017-May-17 09:59N 40°27' W 074°03'0 0.0
2017-May-17 09:28N 40°27' W 074°03'0 0.0
2017-May-17 08:58N 40°27' W 074°03'0 0.0
2017-May-17 08:28N 40°27' W 074°03'0 0.0
2017-May-17 08:00N 40°27' W 074°03'0 0.0
2017-May-17 07:27N 40°27' W 074°03'0 0.0
2017-May-17 06:56N 40°27' W 074°03'0 0.0
2017-May-17 06:29N 40°27' W 074°03'0 0.0
2017-May-17 01:38N 40°27' W 074°03'0 0.0
2017-May-17 01:21N 40°27' W 074°03'0 0.0
2017-May-17 00:55N 40°27' W 074°03'0 0.0
2017-May-17 00:29N 40°27' W 074°03'0 0.0
2017-May-17 00:00N 40°27' W 074°03'0 0.0
2017-May-16 23:17N 40°27' W 074°03'0 0.0
2017-May-16 22:59N 40°27' W 074°03'0 0.0
2017-May-16 20:50N 40°27' W 074°03'0 0.0
2017-May-16 19:40N 40°27' W 074°03'0 0.0
2017-May-16 19:27N 40°27' W 074°03'0 0.0
2017-May-16 18:58N 40°27' W 074°03'0 0.0
2017-May-16 18:18N 40°27' W 074°03'0 0.0
2017-May-16 17:58N 40°27' W 074°03'0 0.0
2017-May-16 17:24N 40°27' W 074°03'0 0.0
2017-May-16 17:00N 40°27' W 074°03'0 0.0
2017-May-16 15:54N 40°27' W 074°03'0 0.0
2017-May-16 15:20N 40°27' W 074°03'0 0.0
2017-May-16 14:52N 40°27' W 074°03'0 0.0
2017-May-16 13:43N 40°27' W 074°03'0 0.0
2017-May-16 13:29N 40°27' W 074°03'0 0.0
2017-May-16 12:58N 40°27' W 074°03'0 0.0
2017-May-16 12:30N 40°27' W 074°03'0 0.0
2017-May-16 11:54N 40°27' W 074°03'0 0.0
2017-May-16 08:25N 40°27' W 074°03'0 0.0
2017-May-16 07:24N 40°27' W 074°03'0 0.0
2017-May-16 06:58N 40°27' W 074°03'0 0.0
2017-May-16 05:54N 40°27' W 074°03'0 0.0
2017-May-16 05:27N 40°27' W 074°03'0 0.0
2017-May-15 23:25N 40°27' W 074°03'0 0.0
2017-May-15 22:59N 40°27' W 074°03'0 0.0
2017-May-15 22:03N 40°27' W 074°03'0 0.1
2017-May-15 21:59N 40°27' W 074°03'0 0.3
2017-May-15 20:51N 40°27' W 074°03'1 2.4
2017-May-15 20:23N 40°28' W 074°02'0 1.0
2017-May-15 20:00N 40°29' W 074°02'1 0.5
2017-May-15 18:42N 40°28' W 074°02'2 9.2
2017-May-15 18:30N 40°30' W 074°03'510.2
2017-May-15 18:00N 40°35' W 074°02'5 9.6
2017-May-15 17:30N 40°39' W 074°06'3 4.9
2017-May-15 16:59N 40°38' W 074°10'0 0.0
2017-May-15 16:30N 40°38' W 074°10'0 0.0
2017-May-15 16:00N 40°38' W 074°10'0 0.0
2017-May-15 15:30N 40°38' W 074°10'0 0.0
2017-May-15 15:00N 40°38' W 074°10'0 0.0
2017-May-15 14:30N 40°38' W 074°10'0 0.0
2017-May-15 13:30N 40°38' W 074°10'0 0.0
2017-May-15 13:00N 40°38' W 074°10'0 0.0
2017-May-15 12:30N 40°38' W 074°10'0 0.0
2017-May-15 12:00N 40°38' W 074°10'0 0.0
2017-May-15 11:30N 40°38' W 074°10'0 0.0
2017-May-15 11:00N 40°38' W 074°10'0 0.0
2017-May-15 10:30N 40°38' W 074°10'0 0.0
2017-May-15 10:00N 40°38' W 074°10'0 0.0
2017-May-15 09:30N 40°38' W 074°10'0 0.0
2017-May-15 09:00N 40°38' W 074°10'0 0.0
2017-May-15 08:30N 40°38' W 074°10'0 0.0
2017-May-15 08:00N 40°38' W 074°10'0 0.0
2017-May-15 07:30N 40°38' W 074°10'0 0.0
2017-May-15 07:00N 40°38' W 074°10'0 0.0
2017-May-15 06:30N 40°38' W 074°10'0 0.0
2017-May-15 06:00N 40°38' W 074°10'0 0.0
2017-May-15 05:30N 40°38' W 074°10'0 0.0
2017-May-15 05:00N 40°38' W 074°10'0 0.0
2017-May-15 04:30N 40°38' W 074°10'  
Track history (hours):
 
Tides and Currents Weather Stations Pressure Air Temp Water Temp Dewpoint Dewpoint Depression Visibility Wind Speed Wind Dir Waves Ship Positions

Elizabeth Mc Allister

Owner: MC ALLISTER TOWING & TRANSPORTATION INC, NEW YORK, NY. More information available from US FCC via Universal Licensing System and Coast Guard Vessel Documentation Center.

Last reported at 2017-May-24 18:18 UTC. Time now 2017-May-26 16:50 UTC.
Position N 40°38' W 074°10'.

Length 31 m.

Type: Tug. MMSI: 362751376.

Date/timePositionNaut miles runAvg speedWind from/ knotsBaromVisibWave heightAir tempDewpointWater temp
2017-May-24 18:18N 40°38' W 074°10'0 0.7
2017-May-24 18:00N 40°38' W 074°10'4 8.8
2017-May-24 17:30N 40°40' W 074°04'611.4
2017-May-24 17:00N 40°45' W 074°01'2 3.2
2017-May-24 16:30N 40°46' W 073°60'0 0.1
2017-May-24 16:00N 40°46' W 073°60'1 1.6
2017-May-24 15:30N 40°47' W 073°60'1 1.7
2017-May-24 15:00N 40°46' W 074°00'0 0.3
2017-May-24 14:00N 40°46' W 074°00'4 8.7
2017-May-24 13:30N 40°42' W 074°02'4 7.2
2017-May-24 13:00N 40°38' W 074°03'0 0.2
2017-May-24 12:30N 40°38' W 074°03'5 9.5
2017-May-24 12:00N 40°38' W 074°09'0 0.6
2017-May-24 11:30N 40°38' W 074°10'0 0.0
2017-May-24 11:00N 40°38' W 074°10'0 0.0
2017-May-24 10:30N 40°38' W 074°10'0 0.0
2017-May-24 09:59N 40°38' W 074°10'0 0.0
2017-May-24 09:30N 40°38' W 074°10'0 0.0
2017-May-24 09:00N 40°38' W 074°10'0 0.0
2017-May-24 08:30N 40°38' W 074°10'0 0.0
2017-May-24 08:00N 40°38' W 074°10'0 0.0
2017-May-24 07:30N 40°38' W 074°10'0 0.0
2017-May-24 07:00N 40°38' W 074°10'0 0.0
2017-May-24 06:30N 40°38' W 074°10'0 0.0
2017-May-24 06:00N 40°38' W 074°10'0 0.0
2017-May-24 05:30N 40°38' W 074°10'0 0.0
2017-May-24 05:00N 40°38' W 074°10'0 0.0
2017-May-24 04:30N 40°38' W 074°10'0 0.0
2017-May-24 04:00N 40°38' W 074°10'0 0.0
2017-May-24 03:29N 40°38' W 074°10'0 0.0
2017-May-24 03:00N 40°38' W 074°10'0 0.0
2017-May-24 02:30N 40°38' W 074°10'0 0.0
2017-May-24 02:00N 40°38' W 074°10'0 0.0
2017-May-24 01:30N 40°38' W 074°10'0 0.0
2017-May-24 01:00N 40°38' W 074°10'0 0.0
2017-May-24 00:30N 40°38' W 074°10'0 0.0
2017-May-24 00:00N 40°38' W 074°10'0 0.0
2017-May-23 23:30N 40°38' W 074°10'0 0.0
2017-May-23 23:00N 40°38' W 074°10'0 0.0
2017-May-23 22:30N 40°38' W 074°10'0 0.0
2017-May-23 22:00N 40°38' W 074°10'0 0.0
2017-May-23 21:30N 40°38' W 074°10'0 0.0
2017-May-23 21:00N 40°38' W 074°10'0 0.0
2017-May-23 20:30N 40°38' W 074°10'0 0.0
2017-May-23 20:00N 40°38' W 074°10'0 0.0
2017-May-23 19:30N 40°38' W 074°10'0 0.0
2017-May-23 19:00N 40°38' W 074°10'0 0.0
2017-May-23 18:30N 40°38' W 074°10'0 0.0
2017-May-23 18:00N 40°38' W 074°10'0 0.0
2017-May-23 17:30N 40°38' W 074°10'0 0.0
2017-May-23 17:00N 40°38' W 074°10'0 0.0
2017-May-23 16:30N 40°38' W 074°10'0 0.0
2017-May-23 16:00N 40°38' W 074°10'0 0.0
2017-May-23 15:30N 40°38' W 074°10'0 0.0
2017-May-23 15:00N 40°38' W 074°10'0 0.0
2017-May-23 14:30N 40°38' W 074°10'0 0.0
2017-May-23 13:30N 40°38' W 074°10'0 0.0
2017-May-23 13:00N 40°38' W 074°10'0 0.0
2017-May-23 12:30N 40°38' W 074°10'0 0.0
2017-May-23 12:00N 40°38' W 074°10'0 0.0
2017-May-23 11:30N 40°38' W 074°10'0 0.0
2017-May-23 11:00N 40°38' W 074°10'0 0.0
2017-May-23 10:30N 40°38' W 074°10'0 0.0
2017-May-23 10:00N 40°38' W 074°10'0 0.0
2017-May-23 09:30N 40°38' W 074°10'0 0.0
2017-May-23 09:00N 40°38' W 074°10'0 0.0
2017-May-23 08:30N 40°38' W 074°10'0 0.0
2017-May-23 08:00N 40°38' W 074°10'0 0.0
2017-May-23 07:30N 40°38' W 074°10'0 0.0
2017-May-23 07:00N 40°38' W 074°10'0 0.0
2017-May-23 06:30N 40°38' W 074°10'0 0.0
2017-May-23 06:00N 40°38' W 074°10'0 0.0
2017-May-23 05:30N 40°38' W 074°10'0 0.0
2017-May-23 05:00N 40°38' W 074°10'0 0.0
2017-May-23 04:30N 40°38' W 074°10'0 0.0
2017-May-23 04:00N 40°38' W 074°10'0 0.0
2017-May-23 03:30N 40°38' W 074°10'0 0.0
2017-May-23 03:00N 40°38' W 074°10'0 0.0
2017-May-23 02:30N 40°38' W 074°10'0 0.0
2017-May-23 02:00N 40°38' W 074°10'0 0.0
2017-May-23 01:30N 40°38' W 074°10'0 0.0
2017-May-23 01:00N 40°38' W 074°10'0 0.0
2017-May-23 00:00N 40°38' W 074°10'0 0.0
2017-May-22 23:30N 40°38' W 074°10'0 0.0
2017-May-22 23:00N 40°38' W 074°10'0 0.0
2017-May-22 22:30N 40°38' W 074°10'0 0.0
2017-May-22 22:00N 40°38' W 074°10'2 4.4
2017-May-22 21:30N 40°40' W 074°08'0 0.9
2017-May-22 21:00N 40°41' W 074°09'1 2.2
2017-May-22 20:30N 40°40' W 074°09'2 3.5
2017-May-22 20:00N 40°39' W 074°07'2 4.4
2017-May-22 19:30N 40°40' W 074°04'0 0.1
2017-May-22 19:00N 40°40' W 074°04'0 0.0
2017-May-22 18:30N 40°40' W 074°04'0 0.0
2017-May-22 18:00N 40°40' W 074°04'0 0.0
2017-May-22 17:30N 40°40' W 074°04'0 0.0
2017-May-22 17:00N 40°40' W 074°04'0 0.0
2017-May-22 16:30N 40°40' W 074°04'0 0.0
2017-May-22 16:00N 40°40' W 074°04'0 0.0
2017-May-22 15:30N 40°40' W 074°04'0 0.0
2017-May-22 15:00N 40°40' W 074°04'5 5.3
2017-May-22 14:00N 40°35' W 074°02'4 7.0
2017-May-22 13:29N 40°31' W 074°03'3 6.8
2017-May-22 13:00N 40°28' W 074°03'1 0.2
2017-May-22 08:47N 40°27' W 074°03'0 0.0
2017-May-22 08:23N 40°27' W 074°03'0 0.0
2017-May-22 07:57N 40°27' W 074°03'0 0.0
2017-May-22 07:27N 40°27' W 074°03'0 0.0
2017-May-22 06:56N 40°27' W 074°03'0 0.0
2017-May-22 06:24N 40°27' W 074°03'0 0.0
2017-May-22 05:57N 40°27' W 074°03'0 0.0
2017-May-22 05:30N 40°27' W 074°03'0 0.0
2017-May-22 05:00N 40°27' W 074°03'0 0.0
2017-May-22 04:30N 40°27' W 074°03'0 0.0
2017-May-21 20:18N 40°27' W 074°03'0 0.0
2017-May-21 19:26N 40°27' W 074°03'0 0.0
2017-May-21 18:58N 40°27' W 074°03'0 0.0
2017-May-21 18:28N 40°27' W 074°03'0 0.0
2017-May-21 18:00N 40°27' W 074°03'0 0.0
2017-May-21 17:30N 40°27' W 074°03'0 0.0
2017-May-21 17:00N 40°27' W 074°03'0 0.0
2017-May-21 16:26N 40°27' W 074°03'0 0.0
2017-May-21 15:59N 40°27' W 074°03'0 0.0
2017-May-21 15:29N 40°27' W 074°03'0 0.0
2017-May-21 14:59N 40°27' W 074°03'0 0.0
2017-May-21 13:59N 40°27' W 074°03'0 0.0
2017-May-21 12:00N 40°27' W 074°03'0 0.0
2017-May-21 11:29N 40°27' W 074°03'0 0.0
2017-May-21 11:00N 40°27' W 074°03'0 0.0
2017-May-21 10:30N 40°27' W 074°03'0 0.0
2017-May-21 10:00N 40°27' W 074°03'0 0.0
2017-May-21 09:30N 40°27' W 074°03'0 0.0
2017-May-21 09:00N 40°27' W 074°03'0 0.0
2017-May-21 08:29N 40°27' W 074°03'0 0.0
2017-May-21 07:59N 40°27' W 074°03'0 0.0
2017-May-21 07:18N 40°27' W 074°03'0 0.0
2017-May-21 07:00N 40°27' W 074°03'0 0.0
2017-May-21 06:30N 40°27' W 074°03'0 0.0
2017-May-21 05:58N 40°27' W 074°03'0 0.0
2017-May-21 05:28N 40°27' W 074°03'0 0.0
2017-May-21 04:57N 40°27' W 074°03'0 0.0
2017-May-21 04:18N 40°27' W 074°03'0 0.0
2017-May-20 18:42N 40°27' W 074°03'0 0.0
2017-May-20 18:18N 40°27' W 074°03'0 0.0
2017-May-20 17:51N 40°27' W 074°03'0 0.0
2017-May-20 17:28N 40°27' W 074°03'0 0.0
2017-May-20 16:58N 40°27' W 074°03'0 0.0
2017-May-20 16:23N 40°27' W 074°03'0 0.0
2017-May-20 15:59N 40°27' W 074°03'0 0.0
2017-May-20 15:29N 40°27' W 074°03'0 0.0
2017-May-20 15:00N 40°27' W 074°03'0 0.0
2017-May-20 14:30N 40°27' W 074°03'0 0.0
2017-May-20 13:29N 40°27' W 074°03'0 0.0
2017-May-20 13:00N 40°27' W 074°03'0 0.0
2017-May-20 12:28N 40°27' W 074°03'0 0.0
2017-May-20 12:00N 40°27' W 074°03'0 0.0
2017-May-20 11:30N 40°27' W 074°03'0 0.0
2017-May-20 10:59N 40°27' W 074°03'0 0.0
2017-May-20 10:30N 40°27' W 074°03'0 0.0
2017-May-20 09:59N 40°27' W 074°03'0 0.0
2017-May-20 09:26N 40°27' W 074°03'0 0.0
2017-May-20 08:58N 40°27' W 074°03'0 0.0
2017-May-20 08:30N 40°27' W 074°03'0 0.0
2017-May-20 07:59N 40°27' W 074°03'0 0.0
2017-May-20 07:30N 40°27' W 074°03'0 0.0
2017-May-20 07:00N 40°27' W 074°03'0 0.0
2017-May-20 06:28N 40°27' W 074°03'0 0.0
2017-May-20 06:00N 40°27' W 074°03'0 0.0
2017-May-20 05:29N 40°27' W 074°03'0 0.0
2017-May-20 05:00N 40°27' W 074°03'0 0.0
2017-May-20 04:30N 40°27' W 074°03'0 0.0
2017-May-20 03:14N 40°27' W 074°03'0 0.0
2017-May-20 02:59N 40°27' W 074°03'0 0.0
2017-May-20 02:28N 40°27' W 074°03'0 0.0
2017-May-20 02:00N 40°27' W 074°03'0 0.0
2017-May-20 01:30N 40°27' W 074°03'0 0.0
2017-May-20 00:43N 40°27' W 074°03'0 0.0
2017-May-19 22:56N 40°27' W 074°03'0 0.0
2017-May-19 18:24N 40°27' W 074°03'0 0.0
2017-May-19 17:56N 40°27' W 074°03'0 0.0
2017-May-19 17:15N 40°27' W 074°03'0 0.0
2017-May-19 16:53N 40°27' W 074°03'0 0.0
2017-May-19 16:27N 40°27' W 074°03'0 0.0
2017-May-19 15:51N 40°27' W 074°03'0 0.0
2017-May-19 15:25N 40°27' W 074°03'0 0.0
2017-May-19 13:58N 40°27' W 074°03'0 0.0
2017-May-19 13:18N 40°27' W 074°03'0 0.0
2017-May-19 12:17N 40°27' W 074°03'0 0.0
2017-May-19 11:55N 40°27' W 074°03'0 0.0
2017-May-19 10:21N 40°27' W 074°03'0 0.0
2017-May-19 09:56N 40°27' W 074°03'0 0.0
2017-May-19 09:28N 40°27' W 074°03'0 0.0
2017-May-19 09:00N 40°27' W 074°03'0 0.0
2017-May-19 08:28N 40°27' W 074°03'0 0.0
2017-May-19 08:00N 40°27' W 074°03'0 0.0
2017-May-19 07:29N 40°27' W 074°03'0 0.0
2017-May-19 06:59N 40°27' W 074°03'0 0.0
2017-May-19 03:19N 40°27' W 074°03'0 0.0
2017-May-19 02:59N 40°27' W 074°03'0 0.0
2017-May-19 02:25N 40°27' W 074°03'0 0.0
2017-May-19 01:23N 40°27' W 074°03'0 0.0
2017-May-19 00:57N 40°27' W 074°03'0 0.0
2017-May-18 21:06N 40°27' W 074°03'0 0.0
2017-May-18 20:50N 40°27' W 074°03'0 0.0
2017-May-18 19:52N 40°27' W 074°03'0 0.0
2017-May-18 17:48N 40°27' W 074°03'0 0.0
2017-May-18 17:21N 40°27' W 074°03'0 0.0
2017-May-18 16:49N 40°27' W 074°03'0 0.0
2017-May-18 16:30N 40°27' W 074°03'0 0.0
2017-May-18 16:00N 40°27' W 074°03'0 0.0
2017-May-18 15:30N 40°27' W 074°03'0 0.0
2017-May-18 14:41N 40°27' W 074°03'0 0.0
2017-May-18 13:28N 40°27' W 074°03'0 0.0
2017-May-18 12:14N 40°27' W 074°03'0 0.0
2017-May-18 11:09N 40°27' W 074°03'0 0.0
2017-May-18 10:59N 40°27' W 074°03'0 0.0
2017-May-18 10:28N 40°27' W 074°03'0 0.0
2017-May-18 09:57N 40°27' W 074°03'0 0.0
2017-May-18 09:29N 40°27' W 074°03'0 0.0
2017-May-18 08:57N 40°27' W 074°03'0 0.0
2017-May-18 08:27N 40°27' W 074°03'0 0.0
2017-May-18 07:58N 40°27' W 074°03'0 0.0
2017-May-18 07:28N 40°27' W 074°03'0 0.0
2017-May-18 06:37N 40°27' W 074°03'0 0.0
2017-May-18 06:23N 40°27' W 074°03'0 0.0
2017-May-18 05:58N 40°27' W 074°03'0 0.0
2017-May-18 05:29N 40°27' W 074°03'0 0.0
2017-May-18 04:58N 40°27' W 074°03'0 0.0
2017-May-18 01:11N 40°27' W 074°03'0 0.0
2017-May-18 00:45N 40°27' W 074°03'0 0.0
2017-May-18 00:26N 40°27' W 074°03'0 0.0
2017-May-17 23:59N 40°27' W 074°03'0 0.0
2017-May-17 23:29N 40°27' W 074°03'0 0.0
2017-May-17 20:17N 40°27' W 074°03'0 0.0
2017-May-17 18:03N 40°27' W 074°03'0 0.0
2017-May-17 17:49N 40°27' W 074°03'0 0.0
2017-May-17 17:07N 40°27' W 074°03'0 0.0
2017-May-17 16:56N 40°27' W 074°03'0 0.0
2017-May-17 15:54N 40°27' W 074°03'0 0.0
2017-May-17 15:30N 40°27' W 074°03'0 0.0
2017-May-17 14:59N 40°27' W 074°03'0 0.0
2017-May-17 14:00N 40°27' W 074°03'0 0.0
2017-May-17 13:29N 40°27' W 074°03'0 0.0
2017-May-17 12:59N 40°27' W 074°03'0 0.0
2017-May-17 11:50N 40°27' W 074°03'0 0.0
2017-May-17 11:27N 40°27' W 074°03'0 0.0
2017-May-17 10:39N 40°27' W 074°03'0 0.0
2017-May-17 10:28N 40°27' W 074°03'0 0.0
2017-May-17 09:59N 40°27' W 074°03'0 0.0
2017-May-17 09:28N 40°27' W 074°03'0 0.0
2017-May-17 08:58N 40°27' W 074°03'0 0.0
2017-May-17 08:28N 40°27' W 074°03'0 0.0
2017-May-17 08:00N 40°27' W 074°03'0 0.0
2017-May-17 07:27N 40°27' W 074°03'0 0.0
2017-May-17 06:56N 40°27' W 074°03'0 0.0
2017-May-17 06:29N 40°27' W 074°03'0 0.0
2017-May-17 01:38N 40°27' W 074°03'0 0.0
2017-May-17 01:21N 40°27' W 074°03'0 0.0
2017-May-17 00:55N 40°27' W 074°03'0 0.0
2017-May-17 00:29N 40°27' W 074°03'0 0.0
2017-May-17 00:00N 40°27' W 074°03'0 0.0
2017-May-16 23:17N 40°27' W 074°03'0 0.0
2017-May-16 22:59N 40°27' W 074°03'0 0.0
2017-May-16 20:50N 40°27' W 074°03'0 0.0
2017-May-16 19:40N 40°27' W 074°03'0 0.0
2017-May-16 19:27N 40°27' W 074°03'0 0.0
2017-May-16 18:58N 40°27' W 074°03'0 0.0
2017-May-16 18:18N 40°27' W 074°03'0 0.0
2017-May-16 17:58N 40°27' W 074°03'0 0.0
2017-May-16 17:24N 40°27' W 074°03'0 0.0
2017-May-16 17:00N 40°27' W 074°03'0 0.0
2017-May-16 15:54N 40°27' W 074°03'0 0.0
2017-May-16 15:20N 40°27' W 074°03'0 0.0
2017-May-16 14:52N 40°27' W 074°03'0 0.0
2017-May-16 13:43N 40°27' W 074°03'0 0.0
2017-May-16 13:29N 40°27' W 074°03'0 0.0
2017-May-16 12:58N 40°27' W 074°03'0 0.0
2017-May-16 12:30N 40°27' W 074°03'0 0.0
2017-May-16 11:54N 40°27' W 074°03'0 0.0
2017-May-16 08:25N 40°27' W 074°03'0 0.0
2017-May-16 07:24N 40°27' W 074°03'0 0.0
2017-May-16 06:58N 40°27' W 074°03'0 0.0
2017-May-16 05:54N 40°27' W 074°03'0 0.0
2017-May-16 05:27N 40°27' W 074°03'0 0.0
2017-May-15 23:25N 40°27' W 074°03'0 0.0
2017-May-15 22:59N 40°27' W 074°03'0 0.0
2017-May-15 22:03N 40°27' W 074°03'0 0.1
2017-May-15 21:59N 40°27' W 074°03'0 0.3
2017-May-15 20:51N 40°27' W 074°03'1 2.4
2017-May-15 20:23N 40°28' W 074°02'0 1.0
2017-May-15 20:00N 40°29' W 074°02'1 0.5
2017-May-15 18:42N 40°28' W 074°02'2 9.2
2017-May-15 18:30N 40°30' W 074°03'510.2
2017-May-15 18:00N 40°35' W 074°02'5 9.6
2017-May-15 17:30N 40°39' W 074°06'3 4.9
2017-May-15 16:59N 40°38' W 074°10'0 0.0
2017-May-15 16:30N 40°38' W 074°10'0 0.0
2017-May-15 16:00N 40°38' W 074°10'0 0.0
2017-May-15 15:30N 40°38' W 074°10'0 0.0
2017-May-15 15:00N 40°38' W 074°10'0 0.0
2017-May-15 14:30N 40°38' W 074°10'0 0.0
2017-May-15 13:30N 40°38' W 074°10'0 0.0
2017-May-15 13:00N 40°38' W 074°10'0 0.0
2017-May-15 12:30N 40°38' W 074°10'0 0.0
2017-May-15 12:00N 40°38' W 074°10'0 0.0
2017-May-15 11:30N 40°38' W 074°10'0 0.0
2017-May-15 11:00N 40°38' W 074°10'0 0.0
2017-May-15 10:30N 40°38' W 074°10'0 0.0
2017-May-15 10:00N 40°38' W 074°10'0 0.0
2017-May-15 09:30N 40°38' W 074°10'0 0.0
2017-May-15 09:00N 40°38' W 074°10'0 0.0
2017-May-15 08:30N 40°38' W 074°10'0 0.0
2017-May-15 08:00N 40°38' W 074°10'0 0.0
2017-May-15 07:30N 40°38' W 074°10'0 0.0
2017-May-15 07:00N 40°38' W 074°10'0 0.0
2017-May-15 06:30N 40°38' W 074°10'0 0.0
2017-May-15 06:00N 40°38' W 074°10'0 0.0
2017-May-15 05:30N 40°38' W 074°10'0 0.0
2017-May-15 05:00N 40°38' W 074°10'0 0.0
2017-May-15 04:30N 40°38' W 074°10'  

Dump ship's entire track history